CheckWX is a tool to help pilots better visualize weather data.  It is not intended as a substitute for an official pre-flight weather briefing.

12:49:06 UTC

MMLM TAF
Valle del Fuerte International Airport
Los Mochis, Mexico
TAF MMLM 220428Z 2206/2306 33010KT P6SM SCT200 FM221800 33015KT P6SM SCT200 FM230300 33008KT P6SM SCT200

Mar-22@
06:00 UTC

Mar-22 @ 06:00 UTC

Mar-22@
18:00 UTC

Mar-22 @ 18:00 UTC

TAF MMLM 220428Z 2206/2306 33010KT P6SM SCT200
Wind
  • 330° at 10 KTS
Cloud Levels
  • Scattered at 20,000' AGL

Mar-22@
18:00 UTC

Mar-22 @ 18:00 UTC

Mar-23@
03:00 UTC

Mar-23 @ 03:00 UTC

FM221800 33015KT P6SM SCT200

From

From Standard forecast or significant change

Wind
  • 330° at 15 KTS
Cloud Levels
  • Scattered at 20,000' AGL

Mar-23@
03:00 UTC

Mar-23 @ 03:00 UTC

Mar-23@
06:00 UTC

Mar-23 @ 06:00 UTC

FM230300 33008KT P6SM SCT200

From

From Standard forecast or significant change

Wind
  • 330° at 8 KTS
Cloud Levels
  • Scattered at 20,000' AGL